createdAt,value
2017-12-20T00:01:56.565Z,22.15
2017-12-20T00:04:25.254Z,23.00
2017-12-20T00:06:53.943Z,22.33
2017-12-20T00:09:22.442Z,22.20
2017-12-20T00:11:51.119Z,23.90
2017-12-20T00:14:19.810Z,22.30
2017-12-20T00:16:48.480Z,23.42
2017-12-20T00:19:17.173Z,21.52
2017-12-20T00:21:45.856Z,22.80
2017-12-20T00:24:15.162Z,22.02
2017-12-20T00:26:43.852Z,22.80
2017-12-20T00:29:12.526Z,21.60
2017-12-20T00:31:41.222Z,22.92
2017-12-20T00:34:09.901Z,27.25
2017-12-20T00:36:38.591Z,22.27
2017-12-20T00:39:07.265Z,23.55
2017-12-20T00:41:35.957Z,20.83
2017-12-20T00:44:04.651Z,26.27
2017-12-20T00:46:33.345Z,23.92
2017-12-20T00:49:02.015Z,21.62
2017-12-20T00:51:30.693Z,19.50
2017-12-20T00:53:59.389Z,27.45
2017-12-20T00:56:28.049Z,20.77
2017-12-20T00:58:56.738Z,20.90
2017-12-20T01:01:25.401Z,27.27
2017-12-20T01:03:54.853Z,24.17
2017-12-20T01:06:22.870Z,24.67
2017-12-20T01:08:52.361Z,23.70
2017-12-20T01:11:21.024Z,19.70
2017-12-20T01:13:49.693Z,24.35
2017-12-20T01:16:18.389Z,22.08
2017-12-20T01:18:47.060Z,24.20
2017-12-20T01:21:15.745Z,21.60
2017-12-20T01:23:44.417Z,23.73
2017-12-20T01:26:13.104Z,23.98
2017-12-20T01:28:41.777Z,19.15
2017-12-20T01:31:11.230Z,20.12
2017-12-20T01:33:39.580Z,24.00
2017-12-20T01:36:07.632Z,21.45
2017-12-20T01:38:37.080Z,22.33
2017-12-20T01:41:05.126Z,26.17
2017-12-20T01:43:33.806Z,24.70
2017-12-20T01:46:02.482Z,23.35
2017-12-20T01:48:31.962Z,22.30
2017-12-20T01:50:59.969Z,21.12
2017-12-20T01:53:28.689Z,21.95
2017-12-20T01:55:56.711Z,27.42
2017-12-20T01:58:25.503Z,22.62
2017-12-20T02:00:55.704Z,22.90
2017-12-20T02:03:24.383Z,25.20
2017-12-20T02:05:53.095Z,23.62
2017-12-20T02:08:22.542Z,21.95
2017-12-20T02:10:51.214Z,24.33
2017-12-20T02:13:19.574Z,21.98
2017-12-20T02:15:49.026Z,26.48
2017-12-20T02:18:17.729Z,23.77
2017-12-20T02:20:45.746Z,20.62
2017-12-20T02:23:13.752Z,23.67
2017-12-20T02:25:41.782Z,23.95
2017-12-20T02:28:10.554Z,21.98
2017-12-20T02:30:38.591Z,18.92
2017-12-20T02:33:18.499Z,24.42
2017-12-20T02:35:46.542Z,25.77
2017-12-20T02:38:14.965Z,21.70
2017-12-20T02:40:43.304Z,24.58
2017-12-20T02:43:11.659Z,24.35
2017-12-20T02:45:39.670Z,21.70
2017-12-20T02:48:08.471Z,25.35
2017-12-20T02:50:36.479Z,26.35
2017-12-20T02:53:04.501Z,24.20
2017-12-20T02:55:33.305Z,23.20
2017-12-20T02:58:01.658Z,26.12
2017-12-20T03:00:30.779Z,27.08
2017-12-20T03:02:59.130Z,25.85
2017-12-20T03:05:27.159Z,24.75
2017-12-20T03:07:55.194Z,22.27
2017-12-20T03:10:23.978Z,22.02
2017-12-20T03:12:52.783Z,23.98
2017-12-20T03:15:20.786Z,19.77
2017-12-20T03:17:49.465Z,22.75
2017-12-20T03:20:17.821Z,23.58
2017-12-20T03:22:46.498Z,20.60
2017-12-20T03:25:15.205Z,18.70
2017-12-20T03:27:43.562Z,19.83
2017-12-20T03:30:13.003Z,22.98
2017-12-20T03:32:41.707Z,22.58
2017-12-20T03:35:10.053Z,20.83
2017-12-20T03:37:38.098Z,22.10
2017-12-20T03:40:07.211Z,27.75
2017-12-20T03:42:35.887Z,25.48
2017-12-20T03:45:05.352Z,29.20
2017-12-20T03:47:34.508Z,24.00
2017-12-20T03:50:02.883Z,27.10
2017-12-20T03:52:31.097Z,23.48
2017-12-20T03:54:59.175Z,20.45
2017-12-20T03:57:28.448Z,27.00
2017-12-20T03:59:56.794Z,23.75
2017-12-20T04:02:26.262Z,25.05
2017-12-20T04:04:54.272Z,20.35
2017-12-20T04:07:23.385Z,26.42
2017-12-20T04:09:52.079Z,23.45
2017-12-20T04:12:20.757Z,27.85
2017-12-20T04:14:49.450Z,25.60
2017-12-20T04:17:18.127Z,26.10
2017-12-20T04:19:47.555Z,25.85
2017-12-20T04:22:16.824Z,26.30
2017-12-20T04:24:46.271Z,28.02
2017-12-20T04:27:14.973Z,23.95
2017-12-20T04:29:43.653Z,24.30
2017-12-20T04:32:12.336Z,27.67
2017-12-20T04:34:41.022Z,24.17
2017-12-20T04:37:09.695Z,24.87
2017-12-20T04:39:38.401Z,24.05
2017-12-20T04:42:07.076Z,25.62
2017-12-20T04:44:35.766Z,20.27
2017-12-20T04:47:04.459Z,24.48
2017-12-20T04:49:33.142Z,21.33
2017-12-20T04:52:01.843Z,21.25
2017-12-20T04:54:30.513Z,22.27
2017-12-20T04:56:59.181Z,20.23
2017-12-20T04:59:27.875Z,21.02
2017-12-20T05:01:56.575Z,18.20
2017-12-20T05:04:25.284Z,22.35
2017-12-20T05:06:53.970Z,22.50
2017-12-20T05:09:22.641Z,20.45
2017-12-20T05:11:51.338Z,21.02
2017-12-20T05:14:20.018Z,20.52
2017-12-20T05:16:48.719Z,20.55
2017-12-20T05:19:17.410Z,20.23
2017-12-20T05:21:46.086Z,15.85
2017-12-20T05:24:14.890Z,19.80
2017-12-20T05:26:43.574Z,18.10
2017-12-20T05:29:12.263Z,20.30
2017-12-20T05:31:40.945Z,18.08
2017-12-20T05:34:09.618Z,18.50
2017-12-20T05:36:38.317Z,20.70
2017-12-20T05:39:06.994Z,19.70
2017-12-20T05:41:35.699Z,21.90
2017-12-20T05:44:04.038Z,19.50
2017-12-20T05:46:32.707Z,19.12
2017-12-20T05:49:01.390Z,20.27
2017-12-20T05:51:30.078Z,20.02
2017-12-20T05:53:58.766Z,20.05
2017-12-20T05:56:27.450Z,16.33
2017-12-20T05:58:56.130Z,21.85
2017-12-20T06:01:24.822Z,18.67
2017-12-20T06:03:53.495Z,21.35
2017-12-20T06:06:22.985Z,16.42
2017-12-20T06:08:51.642Z,20.10
2017-12-20T06:11:20.337Z,19.80
2017-12-20T06:13:49.022Z,24.10
2017-12-20T06:16:17.711Z,19.65
2017-12-20T06:18:46.415Z,21.25
2017-12-20T06:21:15.866Z,17.10
2017-12-20T06:23:44.540Z,20.70
2017-12-20T06:26:13.234Z,16.48
2017-12-20T06:28:41.929Z,19.30
2017-12-20T06:31:10.635Z,19.70
2017-12-20T06:33:39.314Z,18.40
2017-12-20T06:36:08.126Z,20.65
2017-12-20T06:38:36.826Z,22.20
2017-12-20T06:41:05.511Z,20.88
2017-12-20T06:43:34.215Z,19.42
2017-12-20T06:46:03.675Z,21.75
2017-12-20T06:48:32.353Z,20.73
2017-12-20T06:51:01.063Z,21.10
2017-12-20T06:53:30.943Z,18.08
2017-12-20T06:55:59.647Z,21.45
2017-12-20T06:58:28.343Z,21.37
2017-12-20T07:00:57.044Z,21.20
2017-12-20T07:03:25.734Z,20.73
2017-12-20T07:19:26.540Z,23.92
2017-12-20T07:21:59.218Z,22.08
2017-12-20T07:24:28.109Z,21.52
2017-12-20T07:30:05.103Z,23.25
2017-12-20T07:32:33.626Z,20.73
2017-12-20T07:35:11.899Z,22.05
2017-12-20T07:40:35.042Z,17.15
2017-12-20T07:43:04.534Z,21.50
2017-12-20T07:45:33.378Z,19.80
2017-12-20T07:48:02.053Z,19.85
2017-12-20T07:50:30.717Z,20.85
2017-12-20T07:53:00.172Z,19.50
2017-12-20T07:55:28.650Z,21.83
2017-12-20T07:57:57.357Z,21.27
2017-12-20T08:00:26.026Z,20.90
2017-12-20T08:02:54.709Z,21.05
2017-12-20T08:05:23.399Z,22.37
2017-12-20T08:07:52.084Z,20.15
2017-12-20T08:10:20.778Z,21.00
2017-12-20T08:12:49.458Z,20.15
2017-12-20T08:15:18.122Z,20.58
2017-12-20T08:17:46.814Z,21.58
2017-12-20T08:20:15.495Z,19.83
2017-12-20T08:22:44.197Z,22.42
2017-12-20T08:25:12.545Z,19.90
2017-12-20T08:27:41.978Z,28.50
2017-12-20T08:30:10.014Z,19.23
2017-12-20T08:32:39.446Z,22.33
2017-12-20T08:35:08.248Z,21.33
2017-12-20T08:37:36.957Z,20.15
2017-12-20T08:40:05.635Z,17.73
2017-12-20T08:42:34.328Z,21.05
2017-12-20T08:45:02.991Z,21.45
2017-12-20T08:47:31.707Z,18.92
2017-12-20T08:50:00.382Z,23.17
2017-12-20T08:52:29.056Z,21.48
2017-12-20T08:54:57.749Z,19.80
2017-12-20T08:57:26.419Z,25.15
2017-12-20T08:59:55.110Z,20.60
2017-12-20T09:02:23.794Z,21.08
2017-12-20T09:04:53.381Z,19.23
2017-12-20T09:07:23.234Z,26.17
2017-12-20T09:09:52.218Z,20.67
2017-12-20T09:12:20.922Z,19.15
2017-12-20T09:14:49.259Z,23.75
2017-12-20T09:17:17.944Z,19.40
2017-12-20T09:19:47.402Z,21.00
2017-12-20T09:22:16.072Z,20.75
2017-12-20T09:24:44.771Z,20.05
2017-12-20T09:27:13.442Z,23.75
2017-12-20T09:29:42.111Z,21.62
2017-12-20T09:32:10.810Z,19.58
2017-12-20T09:34:39.479Z,26.95
2017-12-20T09:37:08.174Z,21.25
2017-12-20T09:39:36.854Z,21.48
2017-12-20T09:42:05.523Z,22.70
2017-12-20T09:44:34.976Z,24.23
2017-12-20T09:47:03.647Z,24.87
2017-12-20T09:49:32.343Z,20.27
2017-12-20T09:52:01.013Z,22.02
2017-12-20T09:54:29.674Z,22.52
2017-12-20T09:56:58.789Z,20.98
2017-12-20T09:59:27.139Z,20.33
2017-12-20T10:01:55.503Z,22.55
2017-12-20T10:04:24.174Z,18.52
2017-12-20T10:06:52.842Z,20.25
2017-12-20T10:09:23.258Z,18.75
2017-12-20T10:11:51.597Z,18.95
2017-12-20T10:14:21.069Z,19.40
2017-12-20T10:16:49.741Z,22.17
2017-12-20T10:19:18.790Z,20.12
2017-12-20T10:21:48.261Z,19.87
2017-12-20T10:24:16.946Z,21.02
2017-12-20T10:26:44.977Z,24.02
2017-12-20T10:29:13.333Z,26.50
2017-12-20T10:31:42.763Z,21.52
2017-12-20T10:34:11.439Z,26.52
2017-12-20T10:36:39.441Z,24.10
2017-12-20T10:39:07.802Z,27.50
2017-12-20T10:41:36.466Z,27.33
2017-12-20T10:44:05.893Z,24.08
2017-12-20T10:46:34.240Z,25.62
2017-12-20T10:49:03.685Z,24.27
2017-12-20T10:51:32.374Z,25.33
2017-12-20T10:54:00.713Z,23.85
2017-12-20T10:56:30.151Z,32.38
2017-12-20T10:58:58.846Z,24.35
2017-12-20T11:01:28.213Z,24.23
2017-12-20T11:03:57.679Z,28.62
2017-12-20T11:06:26.027Z,24.17
2017-12-20T11:08:54.746Z,22.70
2017-12-20T11:11:23.435Z,27.10
2017-12-20T11:13:51.764Z,26.75
2017-12-20T11:16:20.454Z,22.95
2017-12-20T11:18:49.655Z,24.65
2017-12-20T11:21:17.986Z,27.37
2017-12-20T11:23:46.638Z,35.92
2017-12-20T11:26:14.633Z,26.62
2017-12-20T11:28:43.321Z,24.63
2017-12-20T11:31:11.656Z,26.35
2017-12-20T11:33:40.000Z,23.35
2017-12-20T11:36:08.674Z,24.08
2017-12-20T11:38:37.352Z,24.87
2017-12-20T11:41:06.060Z,27.55
2017-12-20T11:43:34.722Z,24.83
2017-12-20T11:46:03.052Z,29.37
2017-12-20T11:48:31.752Z,23.92
2017-12-20T11:51:00.094Z,26.40
2017-12-20T11:53:28.793Z,27.65
2017-12-20T11:55:57.898Z,25.92
2017-12-20T11:58:27.002Z,23.25
2017-12-20T12:00:55.369Z,24.17
2017-12-20T12:03:24.801Z,24.83
2017-12-20T12:05:52.982Z,25.55
2017-12-20T12:08:22.516Z,28.10
2017-12-20T12:10:50.866Z,26.05
2017-12-20T12:13:20.694Z,26.20
2017-12-20T12:15:49.043Z,26.12
2017-12-20T12:18:17.746Z,27.40
2017-12-20T12:20:46.087Z,29.30
2017-12-20T12:23:15.189Z,26.05
2017-12-20T12:25:43.970Z,25.30
2017-12-20T12:28:12.747Z,26.00
2017-12-20T12:30:40.790Z,33.22
2017-12-20T12:33:09.459Z,27.67
2017-12-20T12:35:38.131Z,25.52
2017-12-20T12:38:06.205Z,27.70
2017-12-20T12:40:34.886Z,26.80
2017-12-20T12:43:03.581Z,26.90
2017-12-20T12:45:32.694Z,29.48
2017-12-20T12:48:01.367Z,30.95
2017-12-20T12:50:30.063Z,34.08
2017-12-20T12:52:58.401Z,25.62
2017-12-20T12:55:27.206Z,28.65
2017-12-20T12:57:55.551Z,29.05
2017-12-20T13:00:23.553Z,29.75
2017-12-20T13:02:51.915Z,26.50
2017-12-20T13:05:21.349Z,22.77
2017-12-20T13:07:50.077Z,24.40
2017-12-20T13:10:18.434Z,23.75
2017-12-20T13:12:46.594Z,23.98
2017-12-20T13:15:15.303Z,27.42
2017-12-20T13:17:43.976Z,28.87
2017-12-20T13:20:12.659Z,29.12
2017-12-20T13:22:41.354Z,30.37
2017-12-20T13:25:09.705Z,24.08
2017-12-20T13:27:38.410Z,25.75
2017-12-20T13:30:07.096Z,30.50
2017-12-20T13:32:35.820Z,27.40
2017-12-20T13:35:04.405Z,42.85
2017-12-20T13:37:32.749Z,27.95
2017-12-20T13:40:01.420Z,29.48
2017-12-20T13:42:30.094Z,26.08
2017-12-20T13:44:59.544Z,29.45
2017-12-20T13:47:27.635Z,28.25
2017-12-20T13:49:55.651Z,30.62
2017-12-20T13:52:25.297Z,25.92
2017-12-20T13:54:53.650Z,33.28
2017-12-20T13:57:21.654Z,32.33
2017-12-20T13:59:50.038Z,35.05
2017-12-20T14:02:18.041Z,30.83
2017-12-20T14:04:47.481Z,31.10
2017-12-20T14:07:15.831Z,29.25
2017-12-20T14:09:44.947Z,32.85
2017-12-20T14:12:13.655Z,34.45
2017-12-20T14:14:42.000Z,30.60
2017-12-20T14:17:11.433Z,28.48
2017-12-20T14:19:40.114Z,30.70
2017-12-20T14:22:08.449Z,31.30
2017-12-20T14:24:37.770Z,26.95
2017-12-20T14:27:07.203Z,31.73
2017-12-20T14:29:35.872Z,28.10
2017-12-20T14:32:04.564Z,27.92
2017-12-20T14:34:33.233Z,36.45
2017-12-20T14:37:02.695Z,31.20
2017-12-20T14:39:31.385Z,30.40
2017-12-20T14:42:00.253Z,28.15
2017-12-20T14:44:28.958Z,26.55
2017-12-20T14:46:57.631Z,27.65
2017-12-20T14:49:26.344Z,32.80
2017-12-20T14:51:55.018Z,36.20
2017-12-20T14:54:23.358Z,30.92
2017-12-20T14:56:51.382Z,33.13
2017-12-20T14:59:19.717Z,33.05
2017-12-20T15:01:48.086Z,33.85
2017-12-20T15:04:16.748Z,31.05
2017-12-20T15:06:45.084Z,33.42
2017-12-20T15:09:13.769Z,36.15
2017-12-20T15:11:42.450Z,34.35
2017-12-20T15:14:11.150Z,30.52
2017-12-20T15:16:39.493Z,30.02
2017-12-20T15:19:08.167Z,26.87
2017-12-20T15:21:37.617Z,29.75
2017-12-20T15:24:05.962Z,29.85
2017-12-20T15:26:34.662Z,32.67
2017-12-20T15:29:03.017Z,29.00
2017-12-20T15:31:31.787Z,26.05
2017-12-20T15:33:59.819Z,29.77
2017-12-20T15:36:27.836Z,24.77
2017-12-20T15:38:56.634Z,31.17
2017-12-20T15:41:25.746Z,28.77
2017-12-20T15:43:53.759Z,27.75
2017-12-20T15:46:22.465Z,25.00
2017-12-20T15:48:51.330Z,34.10
2017-12-20T15:51:20.073Z,23.60
2017-12-20T15:53:49.175Z,27.80
2017-12-20T15:56:17.947Z,28.90
2017-12-20T15:58:47.066Z,23.15
2017-12-20T16:01:15.075Z,29.92
2017-12-20T16:03:43.776Z,30.20
2017-12-20T16:06:12.110Z,29.02
2017-12-20T16:08:40.445Z,24.73
2017-12-20T16:11:09.141Z,24.20
2017-12-20T16:13:37.806Z,25.35
2017-12-20T16:16:06.506Z,29.05
2017-12-20T16:18:35.178Z,28.35
2017-12-20T16:21:03.521Z,30.55
2017-12-20T16:23:31.878Z,25.15
2017-12-20T16:26:00.991Z,28.50
2017-12-20T16:28:29.685Z,30.35
2017-12-20T16:30:58.359Z,26.58
2017-12-20T16:33:26.702Z,29.23
2017-12-20T16:35:54.723Z,31.17
2017-12-20T16:38:22.729Z,31.25
2017-12-20T16:40:50.774Z,33.08
2017-12-20T16:43:18.925Z,31.62
2017-12-20T16:45:46.935Z,32.90
2017-12-20T16:48:15.325Z,29.60
2017-12-20T16:50:43.672Z,33.25
2017-12-20T16:53:11.724Z,32.47
2017-12-20T16:55:40.061Z,32.92
2017-12-20T16:58:08.076Z,32.33
2017-12-20T17:00:36.106Z,29.65
2017-12-20T17:03:04.469Z,32.50
2017-12-20T17:05:33.167Z,32.92
2017-12-20T17:08:01.829Z,29.27
2017-12-20T17:10:30.501Z,32.78
2017-12-20T17:12:58.872Z,32.58
2017-12-20T17:15:27.559Z,31.60
2017-12-20T17:17:56.298Z,28.73
2017-12-20T17:20:25.035Z,30.62
2017-12-20T17:22:53.710Z,29.80
2017-12-20T17:25:23.153Z,37.20
2017-12-20T17:27:51.822Z,52.67
2017-12-20T17:30:23.333Z,29.25
2017-12-20T17:32:52.006Z,25.98
2017-12-20T17:35:21.572Z,25.05
2017-12-20T17:37:50.246Z,27.02
2017-12-20T17:40:20.725Z,31.65
2017-12-20T17:42:49.462Z,27.48
2017-12-20T17:45:18.866Z,31.30
2017-12-20T17:47:47.533Z,25.83
2017-12-20T17:50:16.650Z,31.48
2017-12-20T17:52:44.669Z,31.30
2017-12-20T17:55:13.037Z,33.03
2017-12-20T17:57:42.142Z,30.45
2017-12-20T18:00:11.621Z,38.80
2017-12-20T18:02:40.310Z,29.05
2017-12-20T18:05:08.641Z,27.42
2017-12-20T18:07:37.457Z,33.50
2017-12-20T18:10:06.153Z,30.17
2017-12-20T18:12:35.329Z,31.80
2017-12-20T18:15:04.463Z,27.17
2017-12-20T18:17:33.138Z,30.95
2017-12-20T18:20:01.520Z,30.52
2017-12-20T18:22:30.205Z,28.27
2017-12-20T18:24:59.641Z,33.42
2017-12-20T18:27:28.331Z,31.70
2017-12-20T18:29:57.005Z,34.35
2017-12-20T18:32:25.366Z,34.85
2017-12-20T18:34:54.037Z,30.23
2017-12-20T18:37:22.372Z,33.40
2017-12-20T18:39:51.146Z,36.95
2017-12-20T18:42:19.826Z,34.20
2017-12-20T18:44:48.978Z,41.75
2017-12-20T18:47:18.894Z,37.90
2017-12-20T18:49:48.034Z,35.00
2017-12-20T18:52:16.720Z,32.83
2017-12-20T18:54:45.061Z,30.67
2017-12-20T18:57:13.425Z,32.45
2017-12-20T18:59:42.205Z,31.00
2017-12-20T19:02:10.228Z,34.63
2017-12-20T19:04:38.905Z,32.45
2017-12-20T19:07:07.244Z,34.13
2017-12-20T19:09:36.387Z,31.90
2017-12-20T19:12:05.054Z,32.45
2017-12-20T19:14:33.388Z,33.35
2017-12-20T19:17:01.741Z,33.17
2017-12-20T19:19:30.080Z,33.55
2017-12-20T19:21:58.769Z,34.45
2017-12-20T19:24:28.213Z,32.70
2017-12-20T19:26:56.226Z,33.15
2017-12-20T19:29:24.710Z,37.30
2017-12-20T19:31:53.373Z,34.33
